sensor_id;sensor_type;location;lat;lon;timestamp;P1;durP1;ratioP1;P2;durP2;ratioP2
11572;SDS011;5842;52.426;4.886;2023-06-22T00:00:56;37.47;;;26.40;;
11572;SDS011;5842;52.426;4.886;2023-06-22T00:03:24;36.10;;;27.17;;
11572;SDS011;5842;52.426;4.886;2023-06-22T00:05:52;37.60;;;27.53;;
11572;SDS011;5842;52.426;4.886;2023-06-22T00:08:21;40.43;;;27.83;;
11572;SDS011;5842;52.426;4.886;2023-06-22T00:10:48;40.43;;;27.87;;
11572;SDS011;5842;52.426;4.886;2023-06-22T00:13:16;40.80;;;29.10;;
11572;SDS011;5842;52.426;4.886;2023-06-22T00:15:43;37.20;;;27.27;;
11572;SDS011;5842;52.426;4.886;2023-06-22T00:18:14;37.60;;;27.57;;
11572;SDS011;5842;52.426;4.886;2023-06-22T00:20:42;40.20;;;27.80;;
11572;SDS011;5842;52.426;4.886;2023-06-22T00:23:10;41.10;;;29.13;;
11572;SDS011;5842;52.426;4.886;2023-06-22T00:25:42;40.63;;;29.00;;
11572;SDS011;5842;52.426;4.886;2023-06-22T00:28:09;39.53;;;27.97;;
11572;SDS011;5842;52.426;4.886;2023-06-22T00:30:37;41.80;;;29.50;;
11572;SDS011;5842;52.426;4.886;2023-06-22T00:33:04;43.97;;;29.93;;
11572;SDS011;5842;52.426;4.886;2023-06-22T00:35:32;43.50;;;30.03;;
11572;SDS011;5842;52.426;4.886;2023-06-22T00:38:00;43.17;;;30.23;;
11572;SDS011;5842;52.426;4.886;2023-06-22T00:40:29;43.70;;;30.13;;
11572;SDS011;5842;52.426;4.886;2023-06-22T00:42:59;44.07;;;30.57;;
11572;SDS011;5842;52.426;4.886;2023-06-22T00:45:26;40.87;;;28.87;;
11572;SDS011;5842;52.426;4.886;2023-06-22T00:47:57;42.17;;;29.90;;
11572;SDS011;5842;52.426;4.886;2023-06-22T00:50:26;41.77;;;29.83;;
11572;SDS011;5842;52.426;4.886;2023-06-22T00:52:54;45.53;;;31.63;;
11572;SDS011;5842;52.426;4.886;2023-06-22T00:55:23;44.37;;;31.00;;
11572;SDS011;5842;52.426;4.886;2023-06-22T00:57:51;45.40;;;32.07;;
11572;SDS011;5842;52.426;4.886;2023-06-22T01:00:22;43.63;;;30.27;;
11572;SDS011;5842;52.426;4.886;2023-06-22T01:02:50;42.93;;;30.17;;
11572;SDS011;5842;52.426;4.886;2023-06-22T01:05:19;42.20;;;30.27;;
11572;SDS011;5842;52.426;4.886;2023-06-22T01:07:51;45.27;;;30.77;;
11572;SDS011;5842;52.426;4.886;2023-06-22T01:10:21;43.70;;;29.93;;
11572;SDS011;5842;52.426;4.886;2023-06-22T01:12:52;43.00;;;29.13;;
11572;SDS011;5842;52.426;4.886;2023-06-22T01:15:23;40.77;;;28.17;;
11572;SDS011;5842;52.426;4.886;2023-06-22T01:17:52;43.07;;;29.33;;
11572;SDS011;5842;52.426;4.886;2023-06-22T01:20:20;41.63;;;29.13;;
11572;SDS011;5842;52.426;4.886;2023-06-22T01:22:51;44.67;;;30.13;;
11572;SDS011;5842;52.426;4.886;2023-06-22T01:25:26;40.30;;;28.53;;
11572;SDS011;5842;52.426;4.886;2023-06-22T01:27:56;43.23;;;29.90;;
11572;SDS011;5842;52.426;4.886;2023-06-22T01:30:28;44.47;;;29.27;;
11572;SDS011;5842;52.426;4.886;2023-06-22T01:32:56;46.13;;;30.43;;
11572;SDS011;5842;52.426;4.886;2023-06-22T01:35:26;46.17;;;29.23;;
11572;SDS011;5842;52.426;4.886;2023-06-22T01:37:54;43.70;;;29.77;;
11572;SDS011;5842;52.426;4.886;2023-06-22T01:40:22;42.50;;;29.03;;
11572;SDS011;5842;52.426;4.886;2023-06-22T01:42:50;43.37;;;29.40;;
11572;SDS011;5842;52.426;4.886;2023-06-22T01:45:18;43.93;;;30.20;;
11572;SDS011;5842;52.426;4.886;2023-06-22T01:47:47;44.17;;;29.73;;
11572;SDS011;5842;52.426;4.886;2023-06-22T01:50:14;42.40;;;29.33;;
11572;SDS011;5842;52.426;4.886;2023-06-22T01:52:42;42.60;;;29.13;;
11572;SDS011;5842;52.426;4.886;2023-06-22T01:55:09;40.60;;;27.90;;
11572;SDS011;5842;52.426;4.886;2023-06-22T01:57:37;42.27;;;28.90;;
11572;SDS011;5842;52.426;4.886;2023-06-22T02:00:05;43.90;;;28.27;;
11572;SDS011;5842;52.426;4.886;2023-06-22T02:02:36;41.13;;;28.27;;
11572;SDS011;5842;52.426;4.886;2023-06-22T02:05:08;49.10;;;31.23;;
11572;SDS011;5842;52.426;4.886;2023-06-22T02:07:38;42.07;;;28.93;;
11572;SDS011;5842;52.426;4.886;2023-06-22T02:10:07;47.87;;;29.87;;
11572;SDS011;5842;52.426;4.886;2023-06-22T02:12:37;49.43;;;31.37;;
11572;SDS011;5842;52.426;4.886;2023-06-22T02:15:06;43.63;;;28.87;;
11572;SDS011;5842;52.426;4.886;2023-06-22T02:17:34;45.10;;;29.57;;
11572;SDS011;5842;52.426;4.886;2023-06-22T02:20:02;44.03;;;28.07;;
11572;SDS011;5842;52.426;4.886;2023-06-22T02:22:34;44.93;;;28.47;;
11572;SDS011;5842;52.426;4.886;2023-06-22T02:25:02;43.67;;;28.73;;
11572;SDS011;5842;52.426;4.886;2023-06-22T02:27:29;38.63;;;27.13;;
11572;SDS011;5842;52.426;4.886;2023-06-22T02:29:57;45.73;;;28.60;;
11572;SDS011;5842;52.426;4.886;2023-06-22T02:32:24;40.93;;;27.67;;
11572;SDS011;5842;52.426;4.886;2023-06-22T02:34:52;41.17;;;27.43;;
11572;SDS011;5842;52.426;4.886;2023-06-22T02:37:19;40.37;;;27.43;;
11572;SDS011;5842;52.426;4.886;2023-06-22T02:39:51;37.17;;;25.73;;
11572;SDS011;5842;52.426;4.886;2023-06-22T02:42:19;41.13;;;26.53;;
11572;SDS011;5842;52.426;4.886;2023-06-22T02:44:46;39.60;;;26.30;;
11572;SDS011;5842;52.426;4.886;2023-06-22T02:47:14;40.07;;;26.63;;
11572;SDS011;5842;52.426;4.886;2023-06-22T02:49:41;42.37;;;27.27;;
11572;SDS011;5842;52.426;4.886;2023-06-22T02:52:10;40.50;;;26.63;;
11572;SDS011;5842;52.426;4.886;2023-06-22T02:54:37;39.23;;;26.80;;
11572;SDS011;5842;52.426;4.886;2023-06-22T02:57:06;40.03;;;26.27;;
11572;SDS011;5842;52.426;4.886;2023-06-22T02:59:38;43.27;;;27.33;;
11572;SDS011;5842;52.426;4.886;2023-06-22T03:02:07;43.07;;;27.83;;
11572;SDS011;5842;52.426;4.886;2023-06-22T03:04:35;38.80;;;25.53;;
11572;SDS011;5842;52.426;4.886;2023-06-22T03:07:03;42.83;;;28.70;;
11572;SDS011;5842;52.426;4.886;2023-06-22T03:09:30;39.43;;;25.83;;
11572;SDS011;5842;52.426;4.886;2023-06-22T03:11:58;40.03;;;26.83;;
11572;SDS011;5842;52.426;4.886;2023-06-22T03:14:28;37.40;;;25.90;;
11572;SDS011;5842;52.426;4.886;2023-06-22T03:16:56;41.23;;;27.93;;
11572;SDS011;5842;52.426;4.886;2023-06-22T03:19:27;40.00;;;26.63;;
11572;SDS011;5842;52.426;4.886;2023-06-22T03:21:54;41.13;;;27.33;;
11572;SDS011;5842;52.426;4.886;2023-06-22T03:24:22;41.83;;;27.43;;
11572;SDS011;5842;52.426;4.886;2023-06-22T03:26:49;40.83;;;27.00;;
11572;SDS011;5842;52.426;4.886;2023-06-22T03:29:17;39.73;;;27.27;;
11572;SDS011;5842;52.426;4.886;2023-06-22T03:31:46;41.53;;;27.40;;
11572;SDS011;5842;52.426;4.886;2023-06-22T03:34:13;39.20;;;27.57;;
11572;SDS011;5842;52.426;4.886;2023-06-22T03:36:40;43.57;;;28.63;;
11572;SDS011;5842;52.426;4.886;2023-06-22T03:39:10;41.03;;;28.90;;
11572;SDS011;5842;52.426;4.886;2023-06-22T03:41:37;42.40;;;28.23;;
11572;SDS011;5842;52.426;4.886;2023-06-22T03:44:05;40.63;;;28.57;;
11572;SDS011;5842;52.426;4.886;2023-06-22T03:46:35;44.37;;;29.57;;
11572;SDS011;5842;52.426;4.886;2023-06-22T03:49:04;47.20;;;30.20;;
11572;SDS011;5842;52.426;4.886;2023-06-22T03:51:32;41.87;;;28.63;;
11572;SDS011;5842;52.426;4.886;2023-06-22T03:53:59;41.80;;;27.90;;
11572;SDS011;5842;52.426;4.886;2023-06-22T03:56:27;43.23;;;28.27;;
11572;SDS011;5842;52.426;4.886;2023-06-22T03:58:54;45.40;;;29.43;;
11572;SDS011;5842;52.426;4.886;2023-06-22T04:01:22;46.27;;;29.83;;
11572;SDS011;5842;52.426;4.886;2023-06-22T04:03:49;42.27;;;28.53;;
11572;SDS011;5842;52.426;4.886;2023-06-22T04:06:18;43.63;;;28.90;;
11572;SDS011;5842;52.426;4.886;2023-06-22T04:08:45;41.37;;;28.67;;
11572;SDS011;5842;52.426;4.886;2023-06-22T04:11:15;44.43;;;29.50;;
11572;SDS011;5842;52.426;4.886;2023-06-22T04:13:43;40.60;;;28.60;;
11572;SDS011;5842;52.426;4.886;2023-06-22T04:16:11;44.13;;;30.20;;
11572;SDS011;5842;52.426;4.886;2023-06-22T04:18:38;39.43;;;27.53;;
11572;SDS011;5842;52.426;4.886;2023-06-22T04:21:06;41.43;;;27.93;;
11572;SDS011;5842;52.426;4.886;2023-06-22T04:23:36;42.83;;;27.70;;
11572;SDS011;5842;52.426;4.886;2023-06-22T04:26:04;38.50;;;27.50;;
11572;SDS011;5842;52.426;4.886;2023-06-22T04:28:31;38.93;;;28.10;;
11572;SDS011;5842;52.426;4.886;2023-06-22T04:31:00;38.77;;;27.57;;
11572;SDS011;5842;52.426;4.886;2023-06-22T04:33:27;39.90;;;28.07;;
11572;SDS011;5842;52.426;4.886;2023-06-22T04:35:55;38.07;;;26.77;;
11572;SDS011;5842;52.426;4.886;2023-06-22T04:38:26;38.13;;;27.63;;
11572;SDS011;5842;52.426;4.886;2023-06-22T04:40:55;36.20;;;26.60;;
11572;SDS011;5842;52.426;4.886;2023-06-22T04:43:22;39.13;;;29.00;;
11572;SDS011;5842;52.426;4.886;2023-06-22T04:45:50;36.67;;;27.47;;
11572;SDS011;5842;52.426;4.886;2023-06-22T04:48:18;37.97;;;28.70;;
11572;SDS011;5842;52.426;4.886;2023-06-22T04:50:46;30.63;;;24.87;;
11572;SDS011;5842;52.426;4.886;2023-06-22T04:53:13;28.80;;;22.27;;
11572;SDS011;5842;52.426;4.886;2023-06-22T04:55:40;32.47;;;24.90;;
11572;SDS011;5842;52.426;4.886;2023-06-22T04:58:13;27.30;;;22.40;;
11572;SDS011;5842;52.426;4.886;2023-06-22T05:00:40;26.92;;;22.10;;
11572;SDS011;5842;52.426;4.886;2023-06-22T05:03:09;24.35;;;21.58;;
11572;SDS011;5842;52.426;4.886;2023-06-22T05:05:37;25.75;;;21.92;;
11572;SDS011;5842;52.426;4.886;2023-06-22T05:08:04;27.08;;;22.60;;
11572;SDS011;5842;52.426;4.886;2023-06-22T05:10:32;23.05;;;20.50;;
11572;SDS011;5842;52.426;4.886;2023-06-22T05:12:59;23.23;;;20.42;;
11572;SDS011;5842;52.426;4.886;2023-06-22T05:15:28;22.25;;;19.88;;
11572;SDS011;5842;52.426;4.886;2023-06-22T05:18:01;22.48;;;20.08;;
11572;SDS011;5842;52.426;4.886;2023-06-22T05:20:30;25.73;;;23.13;;
11572;SDS011;5842;52.426;4.886;2023-06-22T07:38:19;26.60;;;23.77;;
11572;SDS011;5842;52.426;4.886;2023-06-22T07:40:47;29.20;;;26.35;;
11572;SDS011;5842;52.426;4.886;2023-06-22T07:43:15;28.48;;;24.13;;
11572;SDS011;5842;52.426;4.886;2023-06-22T07:45:47;27.23;;;24.52;;
11572;SDS011;5842;52.426;4.886;2023-06-22T07:48:17;30.67;;;27.73;;
11572;SDS011;5842;52.426;4.886;2023-06-22T07:50:46;29.25;;;26.20;;
11572;SDS011;5842;52.426;4.886;2023-06-22T07:53:13;26.92;;;24.10;;
11572;SDS011;5842;52.426;4.886;2023-06-22T07:55:42;22.30;;;20.02;;
11572;SDS011;5842;52.426;4.886;2023-06-22T09:53:48;20.13;;;18.08;;
11572;SDS011;5842;52.426;4.886;2023-06-22T09:56:16;20.75;;;18.52;;
11572;SDS011;5842;52.426;4.886;2023-06-22T09:58:45;19.15;;;17.25;;
11572;SDS011;5842;52.426;4.886;2023-06-22T10:01:15;17.00;;;15.00;;
11572;SDS011;5842;52.426;4.886;2023-06-22T10:03:42;18.98;;;16.98;;
11572;SDS011;5842;52.426;4.886;2023-06-22T10:06:10;18.42;;;16.58;;
11572;SDS011;5842;52.426;4.886;2023-06-22T10:08:37;21.42;;;18.25;;
11572;SDS011;5842;52.426;4.886;2023-06-22T10:11:05;19.67;;;17.58;;
11572;SDS011;5842;52.426;4.886;2023-06-22T10:13:33;19.90;;;17.90;;
11572;SDS011;5842;52.426;4.886;2023-06-22T10:16:02;17.58;;;15.77;;
11572;SDS011;5842;52.426;4.886;2023-06-22T10:18:29;16.63;;;14.88;;
11572;SDS011;5842;52.426;4.886;2023-06-22T10:20:57;18.65;;;16.67;;
11572;SDS011;5842;52.426;4.886;2023-06-22T10:23:24;19.05;;;17.05;;
11572;SDS011;5842;52.426;4.886;2023-06-22T10:25:51;19.08;;;17.13;;
11572;SDS011;5842;52.426;4.886;2023-06-22T10:28:19;19.42;;;17.33;;
11572;SDS011;5842;52.426;4.886;2023-06-22T10:30:46;17.85;;;15.70;;
11572;SDS011;5842;52.426;4.886;2023-06-22T10:33:15;18.80;;;16.80;;
11572;SDS011;5842;52.426;4.886;2023-06-22T10:35:42;19.10;;;17.05;;
11572;SDS011;5842;52.426;4.886;2023-06-22T10:38:10;20.13;;;18.02;;
11572;SDS011;5842;52.426;4.886;2023-06-22T10:40:37;20.73;;;17.50;;
11572;SDS011;5842;52.426;4.886;2023-06-22T10:43:05;19.73;;;17.65;;
11572;SDS011;5842;52.426;4.886;2023-06-22T10:45:32;19.92;;;17.85;;
11572;SDS011;5842;52.426;4.886;2023-06-22T10:47:59;21.55;;;18.85;;
11572;SDS011;5842;52.426;4.886;2023-06-22T10:50:31;19.33;;;17.33;;
11572;SDS011;5842;52.426;4.886;2023-06-22T10:52:58;19.13;;;17.13;;
11572;SDS011;5842;52.426;4.886;2023-06-22T10:55:26;18.30;;;16.40;;
11572;SDS011;5842;52.426;4.886;2023-06-22T10:57:53;19.13;;;17.10;;
11572;SDS011;5842;52.426;4.886;2023-06-22T11:00:20;21.08;;;18.98;;
11572;SDS011;5842;52.426;4.886;2023-06-22T11:02:48;41.42;;;37.20;;
11572;SDS011;5842;52.426;4.886;2023-06-22T11:05:15;22.38;;;20.13;;
11572;SDS011;5842;52.426;4.886;2023-06-22T11:07:44;21.48;;;19.10;;
11572;SDS011;5842;52.426;4.886;2023-06-22T11:10:11;21.48;;;19.17;;
11572;SDS011;5842;52.426;4.886;2023-06-22T11:12:38;22.77;;;20.38;;
11572;SDS011;5842;52.426;4.886;2023-06-22T11:15:08;21.27;;;19.08;;
11572;SDS011;5842;52.426;4.886;2023-06-22T11:17:35;23.10;;;20.52;;
11572;SDS011;5842;52.426;4.886;2023-06-22T11:20:03;23.67;;;20.20;;
11572;SDS011;5842;52.426;4.886;2023-06-22T11:22:35;22.80;;;19.90;;
11572;SDS011;5842;52.426;4.886;2023-06-22T11:25:06;22.60;;;20.02;;
11572;SDS011;5842;52.426;4.886;2023-06-22T11:27:34;21.48;;;19.38;;
11572;SDS011;5842;52.426;4.886;2023-06-22T11:30:01;20.63;;;18.05;;
11572;SDS011;5842;52.426;4.886;2023-06-22T11:32:31;19.58;;;17.50;;
11572;SDS011;5842;52.426;4.886;2023-06-22T11:35:00;21.83;;;19.50;;
11572;SDS011;5842;52.426;4.886;2023-06-22T11:37:27;20.55;;;18.17;;
11572;SDS011;5842;52.426;4.886;2023-06-22T11:39:54;17.15;;;15.35;;
11572;SDS011;5842;52.426;4.886;2023-06-22T11:42:23;20.33;;;17.50;;
11572;SDS011;5842;52.426;4.886;2023-06-22T11:44:50;19.67;;;16.90;;
11572;SDS011;5842;52.426;4.886;2023-06-22T11:47:18;19.00;;;17.00;;
11572;SDS011;5842;52.426;4.886;2023-06-22T11:49:45;19.92;;;17.85;;
11572;SDS011;5842;52.426;4.886;2023-06-22T11:52:13;19.25;;;17.15;;
11572;SDS011;5842;52.426;4.886;2023-06-22T11:54:40;19.10;;;17.13;;
11572;SDS011;5842;52.426;4.886;2023-06-22T11:57:07;19.33;;;17.30;;
11572;SDS011;5842;52.426;4.886;2023-06-22T11:59:36;18.55;;;16.70;;
11572;SDS011;5842;52.426;4.886;2023-06-22T12:02:03;19.17;;;16.67;;
11572;SDS011;5842;52.426;4.886;2023-06-22T12:04:34;17.38;;;15.63;;
11572;SDS011;5842;52.426;4.886;2023-06-22T12:07:01;17.67;;;15.65;;
11572;SDS011;5842;52.426;4.886;2023-06-22T12:09:29;18.67;;;16.13;;
11572;SDS011;5842;52.426;4.886;2023-06-22T12:11:56;17.55;;;15.32;;
11572;SDS011;5842;52.426;4.886;2023-06-22T12:14:23;15.48;;;13.65;;
11572;SDS011;5842;52.426;4.886;2023-06-22T12:16:52;16.75;;;15.07;;
11572;SDS011;5842;52.426;4.886;2023-06-22T12:19:19;15.13;;;13.52;;
11572;SDS011;5842;52.426;4.886;2023-06-22T12:21:46;14.43;;;13.05;;
11572;SDS011;5842;52.426;4.886;2023-06-22T12:24:14;15.30;;;13.80;;
11572;SDS011;5842;52.426;4.886;2023-06-22T12:26:41;16.00;;;14.20;;
11572;SDS011;5842;52.426;4.886;2023-06-22T12:29:09;17.02;;;14.20;;
11572;SDS011;5842;52.426;4.886;2023-06-22T12:31:36;18.40;;;14.95;;
11572;SDS011;5842;52.426;4.886;2023-06-22T12:34:06;16.65;;;14.30;;
11572;SDS011;5842;52.426;4.886;2023-06-22T12:36:33;16.15;;;14.43;;
11572;SDS011;5842;52.426;4.886;2023-06-22T12:39:01;16.58;;;14.80;;
11572;SDS011;5842;52.426;4.886;2023-06-22T12:41:28;16.40;;;14.70;;
11572;SDS011;5842;52.426;4.886;2023-06-22T12:43:55;17.38;;;15.60;;
11572;SDS011;5842;52.426;4.886;2023-06-22T12:46:25;17.77;;;15.98;;
11572;SDS011;5842;52.426;4.886;2023-06-22T12:48:53;16.98;;;14.68;;
11572;SDS011;5842;52.426;4.886;2023-06-22T12:51:22;17.58;;;15.77;;
11572;SDS011;5842;52.426;4.886;2023-06-22T12:53:49;17.15;;;15.32;;
11572;SDS011;5842;52.426;4.886;2023-06-22T12:56:17;17.02;;;15.18;;
11572;SDS011;5842;52.426;4.886;2023-06-22T12:58:44;16.38;;;13.65;;
11572;SDS011;5842;52.426;4.886;2023-06-22T13:01:11;18.88;;;13.98;;
11572;SDS011;5842;52.426;4.886;2023-06-22T13:03:38;16.80;;;14.57;;
11572;SDS011;5842;52.426;4.886;2023-06-22T13:06:06;17.63;;;15.82;;
11572;SDS011;5842;52.426;4.886;2023-06-22T13:08:34;16.02;;;14.32;;
11572;SDS011;5842;52.426;4.886;2023-06-22T13:11:02;15.23;;;13.63;;
11572;SDS011;5842;52.426;4.886;2023-06-22T13:13:29;16.23;;;14.60;;
11572;SDS011;5842;52.426;4.886;2023-06-22T13:15:56;16.17;;;14.35;;
11572;SDS011;5842;52.426;4.886;2023-06-22T13:18:24;15.52;;;13.57;;
11572;SDS011;5842;52.426;4.886;2023-06-22T13:20:51;15.40;;;12.85;;
11572;SDS011;5842;52.426;4.886;2023-06-22T13:23:19;15.90;;;14.18;;
11572;SDS011;5842;52.426;4.886;2023-06-22T13:25:48;17.25;;;14.63;;
11572;SDS011;5842;52.426;4.886;2023-06-22T13:28:16;15.55;;;14.00;;
11572;SDS011;5842;52.426;4.886;2023-06-22T13:30:43;16.17;;;14.45;;
11572;SDS011;5842;52.426;4.886;2023-06-22T13:33:12;16.83;;;14.57;;
11572;SDS011;5842;52.426;4.886;2023-06-22T13:35:40;16.85;;;13.07;;
11572;SDS011;5842;52.426;4.886;2023-06-22T13:38:08;15.98;;;13.77;;
11572;SDS011;5842;52.426;4.886;2023-06-22T13:40:36;16.58;;;13.45;;
11572;SDS011;5842;52.426;4.886;2023-06-22T13:43:06;14.30;;;12.80;;
11572;SDS011;5842;52.426;4.886;2023-06-22T13:45:33;15.82;;;11.52;;
11572;SDS011;5842;52.426;4.886;2023-06-22T13:48:00;12.73;;;11.43;;
11572;SDS011;5842;52.426;4.886;2023-06-22T13:50:28;11.02;;;9.90;;
11572;SDS011;5842;52.426;4.886;2023-06-22T13:52:55;11.85;;;10.65;;
11572;SDS011;5842;52.426;4.886;2023-06-22T13:55:23;10.82;;;9.00;;
11572;SDS011;5842;52.426;4.886;2023-06-22T13:57:51;10.68;;;9.10;;
11572;SDS011;5842;52.426;4.886;2023-06-22T14:00:20;11.70;;;10.18;;
11572;SDS011;5842;52.426;4.886;2023-06-22T14:02:48;11.43;;;10.02;;
11572;SDS011;5842;52.426;4.886;2023-06-22T14:05:15;11.25;;;10.13;;
11572;SDS011;5842;52.426;4.886;2023-06-22T14:07:43;11.90;;;10.48;;
11572;SDS011;5842;52.426;4.886;2023-06-22T14:10:13;11.43;;;10.27;;
11572;SDS011;5842;52.426;4.886;2023-06-22T14:12:40;12.82;;;10.43;;
11572;SDS011;5842;52.426;4.886;2023-06-22T14:15:08;10.25;;;9.18;;
11572;SDS011;5842;52.426;4.886;2023-06-22T14:17:37;12.07;;;10.38;;
11572;SDS011;5842;52.426;4.886;2023-06-22T14:20:05;11.52;;;9.98;;
11572;SDS011;5842;52.426;4.886;2023-06-22T14:22:33;11.68;;;10.48;;
11572;SDS011;5842;52.426;4.886;2023-06-22T14:25:01;11.52;;;10.30;;
11572;SDS011;5842;52.426;4.886;2023-06-22T14:27:29;12.30;;;10.38;;
11572;SDS011;5842;52.426;4.886;2023-06-22T14:29:56;13.15;;;10.52;;
11572;SDS011;5842;52.426;4.886;2023-06-22T14:32:24;11.60;;;10.50;;
11572;SDS011;5842;52.426;4.886;2023-06-22T14:34:56;11.15;;;10.02;;
11572;SDS011;5842;52.426;4.886;2023-06-22T14:37:24;10.63;;;9.52;;
11572;SDS011;5842;52.426;4.886;2023-06-22T14:39:51;13.32;;;10.40;;
11572;SDS011;5842;52.426;4.886;2023-06-22T14:42:18;11.40;;;10.20;;
11572;SDS011;5842;52.426;4.886;2023-06-22T14:44:47;11.23;;;9.30;;
11572;SDS011;5842;52.426;4.886;2023-06-22T14:47:14;11.52;;;9.73;;
11572;SDS011;5842;52.426;4.886;2023-06-22T14:49:43;11.52;;;9.45;;
11572;SDS011;5842;52.426;4.886;2023-06-22T14:52:12;10.35;;;9.02;;
11572;SDS011;5842;52.426;4.886;2023-06-22T14:54:39;11.25;;;9.43;;
11572;SDS011;5842;52.426;4.886;2023-06-22T14:57:06;10.15;;;9.10;;
11572;SDS011;5842;52.426;4.886;2023-06-22T14:59:34;10.48;;;9.38;;
11572;SDS011;5842;52.426;4.886;2023-06-22T15:02:01;11.10;;;8.88;;
11572;SDS011;5842;52.426;4.886;2023-06-22T15:04:28;9.95;;;8.35;;
11572;SDS011;5842;52.426;4.886;2023-06-22T15:06:56;10.77;;;8.82;;
11572;SDS011;5842;52.426;4.886;2023-06-22T15:09:25;9.90;;;8.45;;
11572;SDS011;5842;52.426;4.886;2023-06-22T15:11:53;9.48;;;8.48;;
11572;SDS011;5842;52.426;4.886;2023-06-22T15:14:20;10.82;;;8.48;;
11572;SDS011;5842;52.426;4.886;2023-06-22T15:16:47;10.75;;;9.02;;
11572;SDS011;5842;52.426;4.886;2023-06-22T15:19:14;9.75;;;8.18;;
11572;SDS011;5842;52.426;4.886;2023-06-22T15:21:41;11.32;;;9.15;;
11572;SDS011;5842;52.426;4.886;2023-06-22T15:24:09;11.70;;;7.90;;
11572;SDS011;5842;52.426;4.886;2023-06-22T15:26:39;9.88;;;8.45;;
11572;SDS011;5842;52.426;4.886;2023-06-22T15:29:06;9.30;;;8.40;;
11572;SDS011;5842;52.426;4.886;2023-06-22T15:31:33;9.38;;;8.38;;
11572;SDS011;5842;52.426;4.886;2023-06-22T15:34:00;9.23;;;8.05;;
11572;SDS011;5842;52.426;4.886;2023-06-22T15:36:28;10.95;;;8.10;;
11572;SDS011;5842;52.426;4.886;2023-06-22T15:38:56;11.60;;;8.48;;
11572;SDS011;5842;52.426;4.886;2023-06-22T15:41:25;9.15;;;7.72;;
11572;SDS011;5842;52.426;4.886;2023-06-22T15:43:55;10.43;;;7.80;;
11572;SDS011;5842;52.426;4.886;2023-06-22T15:46:22;8.52;;;7.25;;
11572;SDS011;5842;52.426;4.886;2023-06-22T15:48:49;10.23;;;7.40;;
11572;SDS011;5842;52.426;4.886;2023-06-22T15:51:16;8.23;;;7.13;;
11572;SDS011;5842;52.426;4.886;2023-06-22T15:53:44;8.20;;;7.10;;
11572;SDS011;5842;52.426;4.886;2023-06-22T15:56:11;9.60;;;6.83;;
11572;SDS011;5842;52.426;4.886;2023-06-22T15:58:38;8.90;;;7.40;;
11572;SDS011;5842;52.426;4.886;2023-06-22T16:01:07;11.00;;;7.90;;
11572;SDS011;5842;52.426;4.886;2023-06-22T16:03:35;8.00;;;7.20;;
11572;SDS011;5842;52.426;4.886;2023-06-22T16:06:06;8.07;;;6.47;;
11572;SDS011;5842;52.426;4.886;2023-06-22T16:08:33;11.50;;;6.47;;
11572;SDS011;5842;52.426;4.886;2023-06-22T16:11:00;7.30;;;5.97;;
11572;SDS011;5842;52.426;4.886;2023-06-22T16:13:28;6.67;;;5.87;;
11572;SDS011;5842;52.426;4.886;2023-06-22T16:15:55;6.60;;;5.90;;
11572;SDS011;5842;52.426;4.886;2023-06-22T16:18:26;6.73;;;5.47;;
11572;SDS011;5842;52.426;4.886;2023-06-22T16:20:54;6.47;;;5.47;;
11572;SDS011;5842;52.426;4.886;2023-06-22T16:23:21;6.67;;;5.33;;
11572;SDS011;5842;52.426;4.886;2023-06-22T16:25:49;7.50;;;5.43;;
11572;SDS011;5842;52.426;4.886;2023-06-22T16:28:16;5.10;;;4.57;;
11572;SDS011;5842;52.426;4.886;2023-06-22T16:30:43;5.40;;;4.70;;
11572;SDS011;5842;52.426;4.886;2023-06-22T16:33:11;4.77;;;4.27;;
11572;SDS011;5842;52.426;4.886;2023-06-22T16:35:39;5.00;;;4.30;;
11572;SDS011;5842;52.426;4.886;2023-06-22T16:38:07;6.13;;;4.73;;
11572;SDS011;5842;52.426;4.886;2023-06-22T16:40:34;6.77;;;4.40;;
11572;SDS011;5842;52.426;4.886;2023-06-22T16:43:01;5.90;;;4.20;;
11572;SDS011;5842;52.426;4.886;2023-06-22T16:45:28;5.83;;;4.60;;
11572;SDS011;5842;52.426;4.886;2023-06-22T16:47:57;6.13;;;4.40;;
11572;SDS011;5842;52.426;4.886;2023-06-22T16:50:25;5.87;;;4.03;;
11572;SDS011;5842;52.426;4.886;2023-06-22T16:52:54;4.93;;;3.90;;
11572;SDS011;5842;52.426;4.886;2023-06-22T16:55:23;5.07;;;3.43;;
11572;SDS011;5842;52.426;4.886;2023-06-22T16:57:53;4.93;;;3.50;;
11572;SDS011;5842;52.426;4.886;2023-06-22T17:00:22;4.47;;;3.77;;
11572;SDS011;5842;52.426;4.886;2023-06-22T17:02:50;4.03;;;3.63;;
11572;SDS011;5842;52.426;4.886;2023-06-22T17:05:18;3.83;;;3.40;;
11572;SDS011;5842;52.426;4.886;2023-06-22T17:07:47;4.90;;;3.73;;
11572;SDS011;5842;52.426;4.886;2023-06-22T17:10:19;4.70;;;3.40;;
11572;SDS011;5842;52.426;4.886;2023-06-22T17:12:47;3.40;;;3.10;;
11572;SDS011;5842;52.426;4.886;2023-06-22T17:15:15;3.70;;;3.20;;
11572;SDS011;5842;52.426;4.886;2023-06-22T17:17:43;3.60;;;3.13;;
11572;SDS011;5842;52.426;4.886;2023-06-22T17:20:11;4.37;;;2.77;;
11572;SDS011;5842;52.426;4.886;2023-06-22T17:22:43;3.87;;;2.90;;
11572;SDS011;5842;52.426;4.886;2023-06-22T17:25:11;4.83;;;2.67;;
11572;SDS011;5842;52.426;4.886;2023-06-22T17:27:41;4.17;;;2.30;;
11572;SDS011;5842;52.426;4.886;2023-06-22T17:30:13;3.27;;;2.10;;
11572;SDS011;5842;52.426;4.886;2023-06-22T17:32:45;3.47;;;2.30;;
11572;SDS011;5842;52.426;4.886;2023-06-22T17:35:13;3.43;;;2.43;;
11572;SDS011;5842;52.426;4.886;2023-06-22T17:37:46;3.27;;;2.50;;
11572;SDS011;5842;52.426;4.886;2023-06-22T17:40:15;3.13;;;2.30;;
11572;SDS011;5842;52.426;4.886;2023-06-22T17:42:44;2.67;;;2.20;;
11572;SDS011;5842;52.426;4.886;2023-06-22T17:45:15;3.37;;;2.30;;
11572;SDS011;5842;52.426;4.886;2023-06-22T17:47:46;3.40;;;2.07;;
11572;SDS011;5842;52.426;4.886;2023-06-22T17:50:14;4.03;;;2.57;;
11572;SDS011;5842;52.426;4.886;2023-06-22T17:52:41;2.70;;;2.50;;
11572;SDS011;5842;52.426;4.886;2023-06-22T17:55:16;4.20;;;2.87;;
11572;SDS011;5842;52.426;4.886;2023-06-22T17:57:48;2.97;;;2.40;;
11572;SDS011;5842;52.426;4.886;2023-06-22T18:00:19;3.20;;;2.53;;
11572;SDS011;5842;52.426;4.886;2023-06-22T18:02:46;3.07;;;2.50;;
11572;SDS011;5842;52.426;4.886;2023-06-22T18:05:15;3.00;;;2.23;;
11572;SDS011;5842;52.426;4.886;2023-06-22T18:07:43;2.97;;;2.20;;
11572;SDS011;5842;52.426;4.886;2023-06-22T18:10:12;4.53;;;2.40;;
11572;SDS011;5842;52.426;4.886;2023-06-22T18:12:39;3.57;;;2.40;;
11572;SDS011;5842;52.426;4.886;2023-06-22T18:15:09;4.83;;;2.20;;
11572;SDS011;5842;52.426;4.886;2023-06-22T18:17:37;3.70;;;2.43;;
11572;SDS011;5842;52.426;4.886;2023-06-22T18:20:08;4.20;;;2.57;;
11572;SDS011;5842;52.426;4.886;2023-06-22T18:22:36;3.97;;;2.57;;
11572;SDS011;5842;52.426;4.886;2023-06-22T18:25:05;7.43;;;3.10;;
11572;SDS011;5842;52.426;4.886;2023-06-22T18:27:33;3.00;;;2.70;;
11572;SDS011;5842;52.426;4.886;2023-06-22T18:30:02;3.07;;;2.67;;
11572;SDS011;5842;52.426;4.886;2023-06-22T18:32:32;4.33;;;3.00;;
11572;SDS011;5842;52.426;4.886;2023-06-22T18:34:59;4.67;;;3.00;;
11572;SDS011;5842;52.426;4.886;2023-06-22T18:37:28;4.17;;;3.10;;
11572;SDS011;5842;52.426;4.886;2023-06-22T18:39:58;5.47;;;2.87;;
11572;SDS011;5842;52.426;4.886;2023-06-22T18:42:27;6.13;;;3.43;;
11572;SDS011;5842;52.426;4.886;2023-06-22T18:44:55;4.30;;;2.93;;
11572;SDS011;5842;52.426;4.886;2023-06-22T18:47:26;4.87;;;3.47;;
11572;SDS011;5842;52.426;4.886;2023-06-22T18:50:03;4.00;;;3.60;;
11572;SDS011;5842;52.426;4.886;2023-06-22T18:52:31;4.27;;;3.83;;
11572;SDS011;5842;52.426;4.886;2023-06-22T18:55:00;4.93;;;3.77;;
11572;SDS011;5842;52.426;4.886;2023-06-22T18:57:29;5.80;;;4.10;;